Time;durP1;ratioP1;P1;durP2;ratioP2;P2;SDS_P1;SDS_P2;PMS_P1;PMS_P2;Temp;Humidity;BMP_temperature;BMP_pressure;BME280_temperature;BME280_humidity;BME280_pressure;Samples;Min_cycle;Max_cycle;Signal;HPM_P1;HPM_P2
2022/09/04 00:02:32;;;;;;;;;;;;;;;16.17;65.42;101611.94;5036824;28;19915;-70
2022/09/04 00:05:13;;;;;;;;;;;;;;;16.18;65.21;101608.19;5064420;28;19912;-70
2022/09/04 00:07:49;;;;;;;;;;;;;;;16.08;65.56;101613.00;5054103;28;19915;-71
2022/09/04 00:10:21;;;;;;;;;;;;;;;16.02;65.86;101615.41;5054186;28;19909;-70
2022/09/04 00:12:52;;;;;;;;;;;;;;;16.18;65.36;101619.13;5035933;28;19956;-71
2022/09/04 00:15:20;;;;;;;;;;;;;;;16.06;65.77;101620.53;5036501;28;19931;-70
2022/09/04 00:17:50;;;;;;;;;;;;;;;16.05;65.53;101614.22;5049952;28;19916;-70
2022/09/04 00:20:15;;;;;;;;;;;;;;;15.86;66.32;101614.63;5073054;28;19914;-70
2022/09/04 00:22:51;;;;;;;;;;;;;;;16.01;65.72;101613.72;5072751;28;19917;-70
2022/09/04 00:25:24;;;;;;;;;;;;;;;16.00;65.81;101622.09;5072863;28;19908;-71
2022/09/04 00:27:52;;;;;;;;;;;;;;;15.93;65.93;101621.09;5073752;28;19908;-72
2022/09/04 00:30:19;;;;;;;;;;;;;;;16.08;65.39;101618.47;5072086;28;19929;-71
2022/09/04 00:32:53;;;;;;;;;;;;;;;16.01;65.56;101627.38;5075776;28;19907;-72
2022/09/04 00:35:19;;;;;;;;;;;;;;;15.96;65.93;101621.56;5065078;28;19913;-71
2022/09/04 00:37:54;;;;;;;;;;;;;;;15.99;65.69;101629.44;5052360;28;19965;-71
2022/09/04 00:40:31;;;;;;;;;;;;;;;16.12;65.03;101630.78;5036070;28;19916;-71
2022/09/04 00:42:56;;;;;;;;;;;;;;;15.95;65.42;101619.88;5035517;28;19909;-71
2022/09/04 00:45:34;;;;;;;;;;;;;;;15.85;65.81;101618.38;5058390;28;19915;-71
2022/09/04 00:48:20;;;;;;;;;;;;;;;15.85;65.78;101619.25;5044760;28;19908;-71
2022/09/04 00:50:45;;;;;;;;;;;;;;;15.91;65.57;101623.13;5035410;28;19913;-71
2022/09/04 00:53:24;;;;;;;;;;;;;;;15.92;65.61;101614.78;5034107;28;19916;-71
2022/09/04 00:56:00;;;;;;;;;;;;;;;15.98;65.43;101625.00;5035044;28;20058;-71
2022/09/04 00:58:31;;;;;;;;;;;;;;;16.06;65.12;101620.53;5052606;28;19923;-71
2022/09/04 01:00:58;;;;;;;;;;;;;;;15.83;65.76;101612.22;5053564;28;19999;-71
2022/09/04 01:03:23;;;;;;;;;;;;;;;15.83;65.59;101621.28;5053757;28;20005;-71
2022/09/04 01:05:58;;;;;;;;;;;;;;;15.80;65.96;101627.09;5063302;28;20006;-70
2022/09/04 01:08:42;;;;;;;;;;;;;;;15.73;66.05;101626.09;5052248;28;19915;-70
2022/09/04 01:11:07;;;;;;;;;;;;;;;15.76;65.84;101625.72;5053269;28;19909;-69
2022/09/04 01:13:51;;;;;;;;;;;;;;;15.72;65.90;101624.38;5035157;28;19915;-70
2022/09/04 01:16:23;;;;;;;;;;;;;;;15.85;65.40;101624.69;5034802;28;19912;-70
2022/09/04 01:18:58;;;;;;;;;;;;;;;15.86;65.14;101626.41;5070066;28;19909;-70
2022/09/04 01:21:29;;;;;;;;;;;;;;;15.71;65.88;101625.38;5065545;28;19912;-70
2022/09/04 01:24:13;;;;;;;;;;;;;;;15.66;65.99;101630.53;5055182;28;19908;-70
2022/09/04 01:26:46;;;;;;;;;;;;;;;15.52;66.23;101623.00;5054222;28;19991;-70
2022/09/04 01:29:22;;;;;;;;;;;;;;;15.61;66.11;101630.16;5055083;28;19919;-70
2022/09/04 01:32:06;;;;;;;;;;;;;;;15.76;65.19;101620.25;5054333;28;19935;-70
2022/09/04 01:34:31;;;;;;;;;;;;;;;15.73;65.40;101626.09;5058944;28;19919;-70
2022/09/04 01:37:08;;;;;;;;;;;;;;;15.71;65.68;101630.84;5051527;28;19912;-70
2022/09/04 01:39:35;;;;;;;;;;;;;;;15.71;65.44;101633.56;5059677;28;20007;-71
2022/09/04 01:42:24;;;;;;;;;;;;;;;15.81;65.07;101628.78;5054988;28;19915;-70
2022/09/04 01:44:49;;;;;;;;;;;;;;;15.82;64.98;101630.50;5046497;28;19912;-70
2022/09/04 01:47:24;;;;;;;;;;;;;;;15.85;64.79;101624.69;5049944;28;20305;-70
2022/09/04 01:49:56;;;;;;;;;;;;;;;15.70;65.18;101631.88;5052112;28;19913;-70
2022/09/04 01:52:37;;;;;;;;;;;;;;;15.83;64.53;101629.47;5034494;28;19986;-70
2022/09/04 01:55:22;;;;;;;;;;;;;;;15.58;65.65;101635.94;5035018;28;19908;-70
2022/09/04 01:57:48;;;;;;;;;;;;;;;15.54;65.65;101631.88;5034068;28;19920;-70
2022/09/04 02:00:18;;;;;;;;;;;;;;;15.67;65.13;101629.50;5034212;28;19908;-71
2022/09/04 02:02:56;;;;;;;;;;;;;;;15.52;65.68;101633.91;5034692;28;19956;-70
2022/09/04 02:05:27;;;;;;;;;;;;;;;15.46;65.75;101630.03;5065951;28;19941;-70
2022/09/04 02:07:52;;;;;;;;;;;;;;;15.44;65.62;101627.44;5053692;28;20254;-70
2022/09/04 02:10:20;;;;;;;;;;;;;;;15.24;66.44;101625.22;5072015;28;19919;-70
2022/09/04 02:13:19;;;;;;;;;;;;;;;15.39;66.01;101627.13;5053913;28;20011;-70
2022/09/04 02:16:05;;;;;;;;;;;;;;;15.41;65.83;101630.53;5031661;28;19923;-70
2022/09/04 02:18:34;;;;;;;;;;;;;;;15.33;65.96;101636.00;5053496;28;19916;-70
2022/09/04 02:21:23;;;;;;;;;;;;;;;15.38;65.77;101635.47;5035877;28;19908;-70
2022/09/04 02:23:56;;;;;;;;;;;;;;;15.44;65.53;101635.63;5033174;28;19916;-70
2022/09/04 02:26:44;;;;;;;;;;;;;;;15.65;64.75;101645.22;5033866;28;19920;-70
2022/09/04 02:29:18;;;;;;;;;;;;;;;15.42;65.80;101640.41;5028405;28;19909;-70
2022/09/04 02:31:48;;;;;;;;;;;;;;;15.52;65.37;101645.72;5033870;28;19909;-70
2022/09/04 02:34:16;;;;;;;;;;;;;;;15.52;65.14;101644.81;5053918;28;19908;-70
2022/09/04 02:36:45;;;;;;;;;;;;;;;15.42;65.18;101639.56;5035088;28;19916;-70
2022/09/04 02:39:51;;;;;;;;;;;;;;;15.60;64.91;101644.84;5036761;28;19931;-70
2022/09/04 02:42:22;;;;;;;;;;;;;;;15.48;65.20;101650.66;5033485;28;19915;-70
2022/09/04 02:45:01;;;;;;;;;;;;;;;15.45;65.10;101640.09;5051722;28;20019;-70
2022/09/04 02:47:27;;;;;;;;;;;;;;;15.56;64.67;101640.75;5069539;28;19999;-70
2022/09/04 02:49:58;;;;;;;;;;;;;;;15.42;65.32;101651.31;5055613;28;19916;-70
2022/09/04 02:52:32;;;;;;;;;;;;;;;15.39;65.47;101646.22;5053424;28;19908;-70
2022/09/04 02:55:11;;;;;;;;;;;;;;;15.31;65.42;101653.53;5053736;28;19908;-70
2022/09/04 02:57:42;;;;;;;;;;;;;;;15.43;64.96;101653.03;5053090;28;19912;-70
2022/09/04 03:00:18;;;;;;;;;;;;;;;15.35;65.23;101650.31;5053318;28;19908;-70
2022/09/04 03:03:02;;;;;;;;;;;;;;;15.19;65.71;101655.75;5053385;28;19915;-70
2022/09/04 03:05:31;;;;;;;;;;;;;;;15.33;65.50;101652.38;5053030;28;19909;-70
2022/09/04 03:08:05;;;;;;;;;;;;;;;15.43;64.28;101661.22;5071125;28;19915;-70
2022/09/04 03:10:35;;;;;;;;;;;;;;;15.28;65.06;101668.38;5053568;28;19933;-71
2022/09/04 03:13:06;;;;;;;;;;;;;;;15.34;64.55;101662.25;5053321;28;20003;-71
2022/09/04 03:15:38;;;;;;;;;;;;;;;15.26;65.27;101667.72;5053468;28;20115;-71
2022/09/04 03:18:09;;;;;;;;;;;;;;;15.13;65.79;101670.09;5043685;28;19960;-71
2022/09/04 03:20:48;;;;;;;;;;;;;;;15.12;65.34;101673.81;5071142;28;20284;-70
2022/09/04 03:23:17;;;;;;;;;;;;;;;15.15;64.93;101676.22;5053762;28;19951;-70
2022/09/04 03:26:02;;;;;;;;;;;;;;;15.06;65.90;101679.94;5053221;28;19912;-70
2022/09/04 03:28:27;;;;;;;;;;;;;;;14.92;66.23;101676.84;5051883;28;19996;-70
2022/09/04 03:30:55;;;;;;;;;;;;;;;15.00;66.11;101677.91;5053271;28;19920;-70
2022/09/04 03:33:28;;;;;;;;;;;;;;;15.04;65.84;101674.66;5070689;28;19963;-70
2022/09/04 03:36:02;;;;;;;;;;;;;;;14.76;66.35;101682.28;5056811;28;19923;-70
2022/09/04 03:38:33;;;;;;;;;;;;;;;14.79;66.70;101676.47;5074272;28;19915;-70
2022/09/04 03:41:18;;;;;;;;;;;;;;;14.87;66.25;101684.69;5074436;28;19928;-70
2022/09/04 03:44:04;;;;;;;;;;;;;;;14.77;66.83;101683.13;5056607;28;19908;-70
2022/09/04 03:46:36;;;;;;;;;;;;;;;14.66;66.49;101681.53;5043139;28;19916;-70
2022/09/04 03:49:20;;;;;;;;;;;;;;;14.64;66.42;101683.59;5052615;28;19919;-70
2022/09/04 03:51:54;;;;;;;;;;;;;;;14.47;66.82;101684.53;5074765;28;19915;-71
2022/09/04 03:54:23;;;;;;;;;;;;;;;14.34;67.52;101687.69;5074123;28;19908;-70
2022/09/04 03:56:55;;;;;;;;;;;;;;;14.48;67.38;101691.72;5056536;28;19966;-71
2022/09/04 03:59:31;;;;;;;;;;;;;;;14.29;67.88;101700.97;5055607;28;19916;-71
2022/09/04 04:02:11;;;;;;;;;;;;;;;14.38;67.64;101700.81;5057169;28;19912;-71
2022/09/04 04:04:36;;;;;;;;;;;;;;;14.34;67.61;101699.47;5066048;28;19919;-70
2022/09/04 04:07:10;;;;;;;;;;;;;;;14.33;67.28;101702.31;5072058;28;19912;-70
2022/09/04 04:09:35;;;;;;;;;;;;;;;14.29;67.47;101707.25;5056756;28;19908;-70
2022/09/04 04:12:13;;;;;;;;;;;;;;;14.33;67.16;101703.16;5056098;28;19912;-70
2022/09/04 04:15:02;;;;;;;;;;;;;;;14.25;67.78;101716.75;5074529;28;19909;-70
2022/09/04 04:17:42;;;;;;;;;;;;;;;14.24;67.73;101715.06;5064437;22;19903;-72
2022/09/04 04:20:11;;;;;;;;;;;;;;;14.24;67.89;101709.59;5021582;28;20003;-72
2022/09/04 04:22:45;;;;;;;;;;;;;;;14.11;67.67;101709.19;5014014;28;19956;-71
2022/09/04 04:25:21;;;;;;;;;;;;;;;14.14;68.22;101719.75;5031670;28;19915;-71
2022/09/04 04:28:02;;;;;;;;;;;;;;;14.23;67.22;101724.25;5031754;28;19915;-73
2022/09/04 04:30:34;;;;;;;;;;;;;;;14.15;67.94;101717.88;5034090;28;19951;-71
2022/09/04 04:33:02;;;;;;;;;;;;;;;14.11;67.99;101730.97;5016389;28;19909;-70
2022/09/04 04:35:47;;;;;;;;;;;;;;;14.15;68.33;101742.38;5016064;28;19909;-70
2022/09/04 04:38:31;;;;;;;;;;;;;;;14.04;68.08;101740.81;5015619;28;19913;-70
2022/09/04 04:40:59;;;;;;;;;;;;;;;14.05;68.30;101742.50;5034028;28;19909;-70
2022/09/04 04:43:30;;;;;;;;;;;;;;;13.98;68.95;101736.84;5016019;28;19912;-70
2022/09/04 04:46:05;;;;;;;;;;;;;;;14.01;68.40;101746.56;5014916;28;19972;-70
2022/09/04 04:48:35;;;;;;;;;;;;;;;13.99;68.62;101744.00;5015436;28;19913;-70
2022/09/04 04:51:09;;;;;;;;;;;;;;;14.06;68.59;101744.22;5018861;28;19916;-71
2022/09/04 04:53:41;;;;;;;;;;;;;;;14.11;68.76;101741.88;5012801;28;20299;-70
2022/09/04 04:56:25;;;;;;;;;;;;;;;14.12;68.71;101746.31;5033362;28;19967;-71
2022/09/04 04:59:17;;;;;;;;;;;;;;;14.05;69.05;101742.50;5033308;28;19940;-70
2022/09/04 05:01:49;;;;;;;;;;;;;;;14.12;68.72;101754.47;5015694;28;19936;-71
2022/09/04 05:04:33;;;;;;;;;;;;;;;14.09;68.98;101752.09;5033322;28;19915;-71
2022/09/04 05:07:29;;;;;;;;;;;;;;;14.12;69.15;101746.31;5015430;28;19909;-71
2022/09/04 05:10:05;;;;;;;;;;;;;;;14.21;68.67;101747.19;5015612;28;19917;-70
2022/09/04 05:12:36;;;;;;;;;;;;;;;14.16;68.75;101755.88;5015612;28;20363;-70
2022/09/04 05:15:20;;;;;;;;;;;;;;;14.22;68.83;101757.94;5033530;28;19916;-72
2022/09/04 05:17:49;;;;;;;;;;;;;;;14.31;68.26;101753.41;5032874;28;19924;-71
2022/09/04 05:20:15;;;;;;;;;;;;;;;14.43;67.74;101756.72;5025109;28;19909;-71
2022/09/04 05:22:43;;;;;;;;;;;;;;;14.57;67.20;101764.31;5032811;28;19928;-70
2022/09/04 05:25:24;;;;;;;;;;;;;;;14.65;66.61;101767.91;5031678;28;19909;-70
2022/09/04 05:27:52;;;;;;;;;;;;;;;14.71;66.39;101766.41;5032383;28;19909;-70
2022/09/04 05:30:24;;;;;;;;;;;;;;;14.74;65.70;101766.09;5015574;28;20004;-73
2022/09/04 05:33:12;;;;;;;;;;;;;;;14.78;65.82;101777.53;5032873;28;19916;-71
2022/09/04 05:35:44;;;;;;;;;;;;;;;14.70;66.03;101783.78;5015199;28;20028;-71
2022/09/04 05:38:18;;;;;;;;;;;;;;;15.01;64.95;101783.25;5014978;28;19913;-70
2022/09/04 05:41:03;;;;;;;;;;;;;;;15.10;64.43;101790.44;5033152;28;19935;-70
2022/09/04 05:43:37;;;;;;;;;;;;;;;14.86;65.16;101792.03;5014901;28;20007;-71
2022/09/04 05:46:09;;;;;;;;;;;;;;;15.01;65.02;101788.72;5015271;28;20392;-71
2022/09/04 05:48:37;;;;;;;;;;;;;;;14.95;64.82;101794.81;5014985;28;20326;-70
2022/09/04 05:51:11;;;;;;;;;;;;;;;15.25;63.64;101796.94;5031129;28;20020;-69
2022/09/04 05:53:48;;;;;;;;;;;;;;;15.25;63.43;101791.50;5031471;28;19909;-70
2022/09/04 05:56:22;;;;;;;;;;;;;;;15.37;62.96;101789.31;5031557;28;19979;-71
2022/09/04 05:59:06;;;;;;;;;;;;;;;15.33;62.74;101793.41;5031176;28;20003;-71
2022/09/04 06:01:55;;;;;;;;;;;;;;;15.47;62.51;101796.34;5014627;28;19913;-70
2022/09/04 06:04:34;;;;;;;;;;;;;;;15.48;62.29;101792.56;5012501;28;19909;-70
2022/09/04 06:07:08;;;;;;;;;;;;;;;15.64;62.02;101797.22;5032374;28;19944;-70
2022/09/04 06:09:42;;;;;;;;;;;;;;;15.46;62.27;101797.38;5032046;28;19913;-70
2022/09/04 06:12:19;;;;;;;;;;;;;;;15.73;61.45;101795.38;5032411;28;19909;-70
2022/09/04 06:14:44;;;;;;;;;;;;;;;15.81;60.89;101803.56;5014375;28;19909;-70
2022/09/04 06:17:36;;;;;;;;;;;;;;;15.74;61.01;101802.53;5032295;28;19913;-71
2022/09/04 06:20:18;;;;;;;;;;;;;;;15.85;60.96;101799.47;5007524;28;19925;-70
2022/09/04 06:23:02;;;;;;;;;;;;;;;15.95;60.74;101800.16;4994654;28;19918;-70
2022/09/04 06:25:43;;;;;;;;;;;;;;;16.21;60.03;101810.03;5011194;28;19946;-71
2022/09/04 06:28:35;;;;;;;;;;;;;;;16.13;59.61;101812.78;5012219;28;20063;-70
2022/09/04 06:31:07;;;;;;;;;;;;;;;16.17;59.53;101811.41;4994784;28;19988;-70
2022/09/04 06:33:32;;;;;;;;;;;;;;;16.24;59.77;101809.72;4994759;28;20118;-69
2022/09/04 06:36:14;;;;;;;;;;;;;;;16.37;59.17;101812.78;5024643;28;20294;-71
2022/09/04 06:39:01;;;;;;;;;;;;;;;16.42;58.84;101809.50;5031564;28;19955;-71
2022/09/04 06:41:34;;;;;;;;;;;;;;;16.49;58.56;101814.09;5032320;28;19909;-71
2022/09/04 06:43:59;;;;;;;;;;;;;;;16.66;58.12;101820.38;5031764;28;19909;-70
2022/09/04 06:46:37;;;;;;;;;;;;;;;16.63;58.27;101826.22;5031929;28;19935;-70
2022/09/04 06:49:21;;;;;;;;;;;;;;;16.75;57.82;101824.81;5031287;28;20264;-69
2022/09/04 06:51:55;;;;;;;;;;;;;;;16.82;57.51;101819.50;5030657;28;19915;-71
2022/09/04 06:54:20;;;;;;;;;;;;;;;16.85;57.24;101813.69;5030619;28;19910;-71
2022/09/04 06:56:45;;;;;;;;;;;;;;;16.98;57.42;101816.72;5031643;28;19981;-72
2022/09/04 06:59:24;;;;;;;;;;;;;;;16.91;57.19;101813.00;5031413;28;19931;-71
2022/09/04 07:02:01;;;;;;;;;;;;;;;17.07;56.52;101828.47;5031584;28;19965;-70
2022/09/04 07:04:37;;;;;;;;;;;;;;;17.09;56.71;101827.28;5031392;28;20243;-72
2022/09/04 07:07:13;;;;;;;;;;;;;;;17.20;56.40;101827.91;5031694;28;19923;-71
2022/09/04 07:09:42;;;;;;;;;;;;;;;17.31;56.39;101827.50;5033604;28;19954;-71
2022/09/04 07:12:24;;;;;;;;;;;;;;;17.20;56.24;101823.28;5035427;28;19931;-69
2022/09/04 07:15:08;;;;;;;;;;;;;;;17.27;56.09;101829.75;5018192;28;19916;-71
2022/09/04 07:17:36;;;;;;;;;;;;;;;17.31;56.02;101835.72;5033904;28;19967;-71
2022/09/04 07:20:11;;;;;;;;;;;;;;;17.40;55.84;101834.63;5032973;28;19909;-71
2022/09/04 07:22:45;;;;;;;;;;;;;;;17.52;55.57;101827.72;5018356;28;19974;-72
2022/09/04 07:25:16;;;;;;;;;;;;;;;17.56;55.75;101831.81;5032439;28;19908;-72
2022/09/04 07:27:47;;;;;;;;;;;;;;;17.73;55.37;101823.50;5034602;28;19974;-72
2022/09/04 07:30:13;;;;;;;;;;;;;;;17.82;54.98;101838.88;5035171;28;19909;-72
2022/09/04 07:32:50;;;;;;;;;;;;;;;17.94;54.76;101829.19;5017103;28;19913;-70
2022/09/04 07:35:35;;;;;;;;;;;;;;;17.85;54.94;101833.00;5017115;28;19909;-71
2022/09/04 07:38:16;;;;;;;;;;;;;;;18.19;54.18;101840.78;5034465;28;19913;-71
2022/09/04 07:40:52;;;;;;;;;;;;;;;18.08;54.81;101844.84;5017342;28;19913;-71
2022/09/04 07:43:40;;;;;;;;;;;;;;;18.27;54.19;101848.97;5016793;28;19999;-71
2022/09/04 07:46:12;;;;;;;;;;;;;;;18.58;53.66;101857.06;5034870;28;19970;-71
2022/09/04 07:48:43;;;;;;;;;;;;;;;18.86;53.50;101864.69;5015008;28;19977;-72
2022/09/04 07:51:09;;;;;;;;;;;;;;;18.70;53.91;101861.06;5015293;28;19908;-71
2022/09/04 07:53:40;;;;;;;;;;;;;;;18.96;53.12;101854.25;5034743;28;19909;-71
2022/09/04 07:56:16;;;;;;;;;;;;;;;19.15;52.37;101859.19;5016912;28;19967;-71
2022/09/04 07:58:48;;;;;;;;;;;;;;;19.19;52.62;101859.66;5034371;28;20038;-73
2022/09/04 08:01:26;;;;;;;;;;;;;;;19.31;52.33;101873.75;5034964;28;20383;-71
2022/09/04 08:03:57;;;;;;;;;;;;;;;19.58;51.64;101864.84;5032095;28;19909;-71
2022/09/04 08:06:35;;;;;;;;;;;;;;;19.51;52.15;101869.38;5034628;28;19908;-71
2022/09/04 08:09:19;;;;;;;;;;;;;;;19.52;51.77;101871.06;5016315;28;20390;-71
2022/09/04 08:11:48;;;;;;;;;;;;;;;19.66;51.75;101872.94;5031574;28;19909;-70
2022/09/04 08:14:13;;;;;;;;;;;;;;;19.66;51.95;101872.94;5017436;28;19960;-72
2022/09/04 08:16:57;;;;;;;;;;;;;;;20.09;50.88;101867.50;5017304;28;19955;-72
2022/09/04 08:19:30;;;;;;;;;;;;;;;20.01;50.75;101875.84;5034304;28;19919;-72
2022/09/04 08:21:56;;;;;;;;;;;;;;;20.12;50.75;101883.59;5016058;28;19909;-71
2022/09/04 08:24:53;;;;;;;;;;;;;;;20.40;50.26;101891.88;5013521;28;19959;-72
2022/09/04 08:27:42;;;;;;;;;;;;;;;20.48;49.62;101879.94;4998522;28;19944;-74
2022/09/04 08:30:08;;;;;;;;;;;;;;;20.53;49.76;101888.41;5024046;28;20450;-71
2022/09/04 08:32:40;;;;;;;;;;;;;;;20.65;49.41;101900.59;5026567;28;20283;-69
2022/09/04 08:35:12;;;;;;;;;;;;;;;20.75;49.14;101900.25;5031550;28;19915;-72
2022/09/04 08:37:55;;;;;;;;;;;;;;;20.51;49.54;101899.63;5024508;28;19913;-73
2022/09/04 08:40:41;;;;;;;;;;;;;;;20.80;49.15;101898.59;4998793;28;19940;-73
2022/09/04 08:43:25;;;;;;;;;;;;;;;20.80;49.51;101898.59;5014266;28;19909;-73
2022/09/04 08:45:57;;;;;;;;;;;;;;;20.79;49.14;101902.38;5014331;28;19909;-72
2022/09/04 08:48:37;;;;;;;;;;;;;;;20.99;49.30;101901.66;5023171;28;19909;-72
2022/09/04 08:51:08;;;;;;;;;;;;;;;21.20;48.51;101904.38;5033515;28;20007;-71
2022/09/04 08:53:36;;;;;;;;;;;;;;;21.52;47.96;101897.34;5017710;28;19952;-71
2022/09/04 08:56:14;;;;;;;;;;;;;;;21.24;48.34;101905.63;5016787;28;19959;-72
2022/09/04 08:58:43;;;;;;;;;;;;;;;21.36;48.44;101887.50;5016516;28;19932;-71
2022/09/04 09:01:11;;;;;;;;;;;;;;;21.25;48.48;101896.31;5016948;28;19909;-71
2022/09/04 09:03:56;;;;;;;;;;;;;;;21.36;48.45;101898.53;5016542;28;20003;-72
2022/09/04 09:06:40;;;;;;;;;;;;;;;21.61;47.62;101906.28;5016825;28;19908;-72
2022/09/04 09:09:05;;;;;;;;;;;;;;;21.65;47.88;101896.56;5016301;28;19913;-72
2022/09/04 09:11:37;;;;;;;;;;;;;;;21.71;47.73;101895.69;5016683;28;19916;-72
2022/09/04 09:14:08;;;;;;;;;;;;;;;22.13;46.72;101899.25;5011640;28;19916;-71
2022/09/04 09:16:41;;;;;;;;;;;;;;;22.31;46.21;101891.19;5029867;28;20047;-74
2022/09/04 09:19:17;;;;;;;;;;;;;;;22.27;45.74;101895.44;5007043;28;19956;-74
2022/09/04 09:21:49;;;;;;;;;;;;;;;22.56;45.01;101893.31;5006943;28;19921;-72
2022/09/04 09:24:39;;;;;;;;;;;;;;;22.63;44.90;101884.00;5005595;28;19920;-73
2022/09/04 09:27:19;;;;;;;;;;;;;;;22.69;45.56;101885.91;5028163;28;19912;-73
2022/09/04 09:29:51;;;;;;;;;;;;;;;22.95;44.83;101887.81;5002725;28;19909;-73
2022/09/04 09:32:31;;;;;;;;;;;;;;;22.81;44.79;101886.06;5024245;28;19910;-73
2022/09/04 09:35:15;;;;;;;;;;;;;;;22.87;44.40;101893.53;5028107;28;19915;-73
2022/09/04 09:37:58;;;;;;;;;;;;;;;23.17;44.37;101890.28;5023504;28;19913;-74
2022/09/04 09:40:42;;;;;;;;;;;;;;;23.70;43.43;101892.88;5025296;28;19920;-73
2022/09/04 09:43:20;;;;;;;;;;;;;;;23.30;43.80;101895.78;5029763;28;19917;-72
2022/09/04 09:46:04;;;;;;;;;;;;;;;23.20;43.77;101889.84;5029821;28;19916;-72
2022/09/04 09:48:48;;;;;;;;;;;;;;;23.64;43.00;101890.97;5030905;28;19951;-73
2022/09/04 09:51:16;;;;;;;;;;;;;;;23.87;42.53;101891.28;5026563;28;19909;-74
2022/09/04 09:53:49;;;;;;;;;;;;;;;23.66;43.05;101894.38;5023544;28;19921;-73
2022/09/04 09:56:24;;;;;;;;;;;;;;;23.56;43.05;101890.13;5019001;28;19913;-73
2022/09/04 09:59:04;;;;;;;;;;;;;;;23.54;43.14;101886.75;5029634;28;19916;-73
2022/09/04 10:01:41;;;;;;;;;;;;;;;23.17;43.40;101895.81;5027590;28;19913;-73
2022/09/04 10:04:27;;;;;;;;;;;;;;;23.43;42.83;101895.72;5028241;28;19909;-72
2022/09/04 10:06:59;;;;;;;;;;;;;;;23.49;42.78;101883.78;5020399;28;19909;-72
2022/09/04 10:09:44;;;;;;;;;;;;;;;23.67;42.66;101883.09;5029439;28;19964;-71
2022/09/04 10:12:12;;;;;;;;;;;;;;;24.15;41.93;101873.44;5026982;28;19910;-73
2022/09/04 10:14:56;;;;;;;;;;;;;;;24.59;41.15;101873.31;5025166;28;19932;-73
2022/09/04 10:17:24;;;;;;;;;;;;;;;24.18;41.35;101875.75;5017477;28;19919;-72
2022/09/04 10:20:22;;;;;;;;;;;;;;;24.41;41.27;101881.56;5023192;28;19955;-72
2022/09/04 10:23:06;;;;;;;;;;;;;;;24.20;41.10;101876.41;5023046;28;19909;-73
2022/09/04 10:25:40;;;;;;;;;;;;;;;24.42;40.69;101879.66;5029847;28;20379;-74
2022/09/04 10:28:06;;;;;;;;;;;;;;;24.64;39.89;101884.53;5025148;28;19951;-76
2022/09/04 10:30:46;;;;;;;;;;;;;;;24.54;40.39;101881.47;5029984;28;19991;-74
2022/09/04 10:33:17;;;;;;;;;;;;;;;24.54;39.87;101887.00;5029727;28;19909;-73
2022/09/04 10:36:09;;;;;;;;;;;;;;;24.43;40.34;101884.97;5030649;28;19909;-74
2022/09/04 10:42:00;;;;;;;;;;;;;;;24.90;39.95;101886.22;5020144;28;19920;-74
2022/09/04 10:44:31;;;;;;;;;;;;;;;24.77;39.18;101891.03;5021025;28;19909;-73
2022/09/04 10:47:05;;;;;;;;;;;;;;;24.77;39.02;101891.88;5010911;28;19913;-72
2022/09/04 10:49:41;;;;;;;;;;;;;;;25.19;38.41;101894.06;5028329;28;19909;-73
2022/09/04 10:52:12;;;;;;;;;;;;;;;24.95;39.40;101893.84;5030286;28;19948;-73
2022/09/04 10:54:54;;;;;;;;;;;;;;;25.11;38.98;101886.91;5025746;23;19928;-71
2022/09/04 10:57:23;;;;;;;;;;;;;;;25.51;38.27;101890.03;4966531;28;19929;-71
2022/09/04 11:00:02;;;;;;;;;;;;;;;24.99;38.58;101875.69;4976525;28;19956;-70
2022/09/04 11:02:46;;;;;;;;;;;;;;;25.09;38.24;101887.09;4973143;28;20016;-71
2022/09/04 11:05:31;;;;;;;;;;;;;;;25.26;37.89;101892.06;4955874;28;19914;-71
2022/09/04 11:08:03;;;;;;;;;;;;;;;25.10;38.35;101874.09;4973700;28;19910;-72
2022/09/04 11:10:34;;;;;;;;;;;;;;;25.02;38.26;101889.06;4953008;28;20000;-71
2022/09/04 11:13:26;;;;;;;;;;;;;;;25.73;37.38;101884.88;4974033;28;19914;-71
2022/09/04 11:16:01;;;;;;;;;;;;;;;25.54;37.77;101875.69;4979181;28;20363;-72
2022/09/04 11:18:40;;;;;;;;;;;;;;;25.74;36.83;101880.16;4956074;28;19929;-71
2022/09/04 11:21:13;;;;;;;;;;;;;;;25.88;36.61;101881.66;4952199;28;20283;-72
2022/09/04 11:24:12;;;;;;;;;;;;;;;25.63;37.45;101890.09;4978319;28;19934;-71
2022/09/04 11:26:38;;;;;;;;;;;;;;;25.65;37.58;101888.78;4952465;28;19910;-72
2022/09/04 11:29:12;;;;;;;;;;;;;;;25.71;37.42;101876.75;4987838;28;19916;-73
2022/09/04 11:31:38;;;;;;;;;;;;;;;25.45;37.66;101877.09;4976917;28;19916;-72
2022/09/04 11:34:22;;;;;;;;;;;;;;;25.96;36.84;101867.47;4991371;28;19933;-72
2022/09/04 11:37:14;;;;;;;;;;;;;;;26.86;35.74;101855.28;4972504;28;20012;-72
2022/09/04 11:39:51;;;;;;;;;;;;;;;26.49;35.98;101866.63;4970753;28;19937;-72
2022/09/04 11:42:20;;;;;;;;;;;;;;;26.11;36.57;101856.75;4967846;28;19933;-72
2022/09/04 11:45:02;;;;;;;;;;;;;;;26.57;35.76;101857.94;4967294;28;19915;-72
2022/09/04 11:47:55;;;;;;;;;;;;;;;26.01;36.51;101853.69;4975893;28;19976;-73
2022/09/04 11:50:25;;;;;;;;;;;;;;;25.81;36.98;101853.16;4953970;28;19914;-72
2022/09/04 11:52:51;;;;;;;;;;;;;;;25.81;36.93;101855.94;4957007;28;19917;-72
2022/09/04 11:55:35;;;;;;;;;;;;;;;25.60;37.45;101846.19;4991600;28;19909;-72
2022/09/04 11:58:00;;;;;;;;;;;;;;;26.55;36.74;101849.00;4995684;28;20342;-72
2022/09/04 12:00:30;;;;;;;;;;;;;;;26.66;35.32;101848.16;4978355;28;19913;-73
2022/09/04 12:03:05;;;;;;;;;;;;;;;26.30;36.40;101845.56;4973684;28;19952;-71
2022/09/04 12:05:39;;;;;;;;;;;;;;;26.32;36.48;101848.94;5002595;28;19909;-73
2022/09/04 12:08:19;;;;;;;;;;;;;;;26.69;35.93;101856.03;4999519;28;19913;-72
2022/09/04 12:10:54;;;;;;;;;;;;;;;27.11;35.33;101847.53;4977601;28;19910;-72
2022/09/04 12:13:38;;;;;;;;;;;;;;;27.27;34.75;101857.06;4977711;28;19918;-72
2022/09/04 12:16:17;;;;;;;;;;;;;;;26.89;36.28;101861.19;4993890;28;19910;-72
2022/09/04 12:19:09;;;;;;;;;;;;;;;27.31;35.28;101864.66;4979308;28;19913;-72
2022/09/04 12:21:51;;;;;;;;;;;;;;;27.65;34.28;101853.69;4992865;28;19910;-72
2022/09/04 12:24:36;;;;;;;;;;;;;;;27.83;34.10;101856.25;4958008;28;19909;-73
2022/09/04 12:27:04;;;;;;;;;;;;;;;28.29;33.22;101859.03;4993690;28;19910;-72
2022/09/04 12:29:40;;;;;;;;;;;;;;;27.55;34.35;101859.03;4979526;28;19937;-73
2022/09/04 12:32:06;;;;;;;;;;;;;;;27.25;33.79;101862.84;4999828;28;19949;-72
2022/09/04 12:34:37;;;;;;;;;;;;;;;26.97;34.73;101855.25;5011804;28;19979;-74
2022/09/04 12:37:11;;;;;;;;;;;;;;;26.99;34.57;101850.28;4993692;28;20359;-71
2022/09/04 12:39:55;;;;;;;;;;;;;;;26.75;34.16;101846.72;4993720;28;19953;-72
2022/09/04 12:42:30;;;;;;;;;;;;;;;26.70;34.63;101846.59;4993624;28;19910;-71
2022/09/04 12:45:16;;;;;;;;;;;;;;;27.49;32.81;101843.31;4992735;28;19910;-71
2022/09/04 12:47:41;;;;;;;;;;;;;;;28.23;32.71;101849.72;4976624;28;19914;-72
2022/09/04 12:50:16;;;;;;;;;;;;;;;28.21;32.41;101846.38;4992439;28;19910;-71
2022/09/04 12:52:44;;;;;;;;;;;;;;;28.28;32.86;101851.75;4980439;28;19918;-71
2022/09/04 12:55:29;;;;;;;;;;;;;;;28.35;32.35;101844.13;4998955;28;19949;-70
2022/09/04 12:57:54;;;;;;;;;;;;;;;28.53;32.06;101837.44;4989029;28;19960;-71
2022/09/04 13:00:21;;;;;;;;;;;;;;;27.81;32.89;101858.47;4986125;28;19910;-71
2022/09/04 13:02:47;;;;;;;;;;;;;;;27.72;32.67;101848.84;4969357;28;19910;-72
2022/09/04 13:05:30;;;;;;;;;;;;;;;27.79;32.91;101846.75;4997710;28;19920;-71
2022/09/04 13:07:55;;;;;;;;;;;;;;;27.78;32.90;101852.56;4963701;28;19913;-72
2022/09/04 13:10:27;;;;;;;;;;;;;;;28.17;32.93;101861.91;4998180;28;19979;-71
2022/09/04 13:13:22;;;;;;;;;;;;;;;27.85;33.12;101848.53;4963427;28;19930;-71
2022/09/04 13:15:51;;;;;;;;;;;;;;;27.99;33.03;101859.34;4966073;28;20021;-71
2022/09/04 13:18:33;;;;;;;;;;;;;;;28.26;32.73;101848.41;4997744;28;19914;-71
2022/09/04 13:21:17;;;;;;;;;;;;;;;29.10;31.67;101848.34;4971235;28;19936;-71
2022/09/04 13:23:56;;;;;;;;;;;;;;;28.46;32.09;101843.19;4984200;28;19920;-71